Hesquiat — VXYW — position and weather

sailwx.info

Track history (hours):
 
Tides and Currents Weather Stations Pressure Air Temp Water Temp Dewpoint Dewpoint Depression Visibility Wind Speed Wind Dir Waves Ship Positions

Hesquiat

Last reported at 2014-Aug-30 15:12 UTC. Time now 2014-Sep-01 18:49 UTC.
Position N 49°07' W 123°11'.

Length 31 m; draft 3.3 m.

Type: Fishing. MMSI: 316005022.

Date/timePositionNaut miles runAvg speedWind from/ knotsBaromVisibWave heightAir tempDewpointWater temp
2014-Aug-30 15:12N 49°07' W 123°11'0 0.0
2014-Aug-30 14:33N 49°07' W 123°11'0 0.0
2014-Aug-30 13:33N 49°07' W 123°11'0 0.0
2014-Aug-30 12:33N 49°07' W 123°11'0 0.0
2014-Aug-30 11:33N 49°07' W 123°11'0 0.0
2014-Aug-30 10:33N 49°07' W 123°11'0 0.0
2014-Aug-30 09:33N 49°07' W 123°11'0 0.0
2014-Aug-30 08:33N 49°07' W 123°11'0 0.0
2014-Aug-30 07:33N 49°07' W 123°11'0 0.0
2014-Aug-30 06:33N 49°07' W 123°11'0 0.0
2014-Aug-30 05:33N 49°07' W 123°11'0 0.0
2014-Aug-30 04:33N 49°07' W 123°11'0 0.0
2014-Aug-30 03:33N 49°07' W 123°11'0 0.0
2014-Aug-30 02:33N 49°07' W 123°11'0 0.0
2014-Aug-30 01:33N 49°07' W 123°11'0 0.0
2014-Aug-30 00:33N 49°07' W 123°11'0 0.0
2014-Aug-29 23:33N 49°07' W 123°11'0 0.0
2014-Aug-29 22:33N 49°07' W 123°11'0 0.0
2014-Aug-29 21:33N 49°07' W 123°11'0 0.0
2014-Aug-29 16:08N 49°07' W 123°11'0 0.0
2014-Aug-29 15:34N 49°07' W 123°11'0 0.0
2014-Aug-29 14:33N 49°07' W 123°11'0 0.0
2014-Aug-29 13:34N 49°07' W 123°11'0 0.0
2014-Aug-29 12:34N 49°07' W 123°11'0 0.0
2014-Aug-29 11:34N 49°07' W 123°11'0 0.0
2014-Aug-29 10:33N 49°07' W 123°11'0 0.0
2014-Aug-29 09:34N 49°07' W 123°11'0 0.0
2014-Aug-29 08:34N 49°07' W 123°11'0 0.0
2014-Aug-29 07:33N 49°07' W 123°11'0 0.0
2014-Aug-29 06:33N 49°07' W 123°11'0 0.0
2014-Aug-29 05:34N 49°07' W 123°11'0 0.0
2014-Aug-29 04:33N 49°07' W 123°11'0 0.0
2014-Aug-29 03:34N 49°07' W 123°11'0 0.0
2014-Aug-29 02:34N 49°07' W 123°11'0 0.0
2014-Aug-29 01:34N 49°07' W 123°11'0 0.0
2014-Aug-29 00:34N 49°07' W 123°11'0 0.0
2014-Aug-28 23:34N 49°07' W 123°11'0 0.0
2014-Aug-28 22:33N 49°07' W 123°11'0 0.0
2014-Aug-28 21:34N 49°07' W 123°11'0 0.0
2014-Aug-28 20:34N 49°07' W 123°11'0 0.0
2014-Aug-28 19:34N 49°07' W 123°11'3 2.6
2014-Aug-28 18:34N 49°07' W 123°15'7 6.6
2014-Aug-28 17:33N 49°12' W 123°22'10 9.5
2014-Aug-28 16:33N 49°19' W 123°12'4 4.3
2014-Aug-28 15:33N 49°17' W 123°06'0 0.0
2014-Aug-28 14:33N 49°17' W 123°06'0 0.0
2014-Aug-28 13:34N 49°17' W 123°06'0 0.0
2014-Aug-28 12:34N 49°17' W 123°06'0 0.0
2014-Aug-28 11:34N 49°17' W 123°06'6 6.3
2014-Aug-28 10:34N 49°18' W 123°15'1110.8
2014-Aug-28 09:34N 49°08' W 123°20'6 6.1
2014-Aug-28 08:33N 49°07' W 123°11'0 0.0
2014-Aug-28 07:33N 49°07' W 123°11'0 0.0
2014-Aug-28 06:33N 49°07' W 123°11'0 0.0
2014-Aug-28 05:33N 49°07' W 123°11'0 0.0
2014-Aug-28 04:33N 49°07' W 123°11'0 0.0
2014-Aug-28 03:33N 49°07' W 123°11'0 0.0
2014-Aug-28 02:33N 49°07' W 123°11'0 0.0
2014-Aug-28 01:33N 49°07' W 123°11'0 0.0
2014-Aug-28 00:33N 49°07' W 123°11'0 0.0
2014-Aug-27 23:33N 49°07' W 123°11'0 0.0
2014-Aug-27 22:33N 49°07' W 123°11'0 0.0
2014-Aug-27 21:33N 49°07' W 123°11'0 0.0
2014-Aug-27 20:33N 49°07' W 123°11'0 0.0
2014-Aug-27 19:33N 49°07' W 123°11'0 0.0
2014-Aug-27 18:33N 49°07' W 123°11'0 0.0
2014-Aug-27 17:33N 49°07' W 123°11'0 0.0
2014-Aug-27 16:33N 49°07' W 123°11'0 0.2
2014-Aug-27 15:33N 49°07' W 123°11'0 0.0
2014-Aug-27 14:33N 49°07' W 123°11'0 0.0
2014-Aug-27 13:33N 49°07' W 123°11'0 0.0
2014-Aug-27 12:33N 49°07' W 123°11'0 0.0
2014-Aug-27 11:33N 49°07' W 123°11'0 0.0
2014-Aug-27 10:33N 49°07' W 123°11'0 0.0
2014-Aug-27 09:33N 49°07' W 123°11'0 0.0
2014-Aug-27 08:33N 49°07' W 123°11'0 0.0
2014-Aug-27 07:33N 49°07' W 123°11'0 0.0
2014-Aug-27 06:33N 49°07' W 123°11'0 0.0
2014-Aug-27 05:33N 49°07' W 123°11'0 0.0
2014-Aug-27 04:33N 49°07' W 123°11'0 0.0
2014-Aug-27 03:33N 49°07' W 123°11'0 0.0
2014-Aug-27 02:33N 49°07' W 123°11'0 0.0
2014-Aug-27 01:33N 49°07' W 123°11'4 4.4
2014-Aug-27 00:33N 49°07' W 123°05'0 0.0
2014-Aug-26 23:33N 49°07' W 123°05'0 0.0
2014-Aug-26 22:33N 49°07' W 123°05'0 0.0
2014-Aug-26 21:33N 49°07' W 123°05'0 0.0
2014-Aug-26 20:33N 49°07' W 123°05'2 2.4
2014-Aug-26 19:33N 49°07' W 123°08'2 2.2
2014-Aug-26 18:33N 49°07' W 123°11'0 0.0
2014-Aug-26 17:33N 49°07' W 123°11'0 0.0
2014-Aug-26 16:33N 49°07' W 123°11'0 0.0
2014-Aug-26 15:33N 49°07' W 123°11'0 0.0
2014-Aug-26 14:33N 49°07' W 123°11'0 0.0
2014-Aug-26 13:33N 49°07' W 123°11'0 0.0
2014-Aug-26 12:33N 49°07' W 123°11'0 0.0
2014-Aug-26 11:33N 49°07' W 123°11'0 0.0
2014-Aug-26 10:33N 49°07' W 123°11'0 0.0
2014-Aug-26 09:33N 49°07' W 123°11'0 0.0
2014-Aug-26 08:33N 49°07' W 123°11'0 0.0
2014-Aug-26 07:33N 49°07' W 123°11'0 0.0
2014-Aug-26 06:33N 49°07' W 123°11'0 0.0
2014-Aug-26 05:33N 49°07' W 123°11'0 0.0
2014-Aug-26 04:33N 49°07' W 123°11'0 0.0
2014-Aug-26 03:33N 49°07' W 123°11'0 0.0
2014-Aug-26 02:33N 49°07' W 123°11'0 0.0
2014-Aug-26 01:34N 49°07' W 123°11'0 0.0
2014-Aug-26 00:33N 49°07' W 123°11'0 0.0
2014-Aug-25 23:33N 49°07' W 123°11'0 0.0
2014-Aug-25 22:34N 49°07' W 123°11'0 0.0
2014-Aug-25 21:34N 49°07' W 123°11'0 0.0
2014-Aug-25 20:34N 49°07' W 123°11'0 0.0
2014-Aug-25 19:34N 49°07' W 123°11'0 0.0
2014-Aug-25 18:33N 49°07' W 123°11'0 0.0
2014-Aug-25 17:34N 49°07' W 123°11'0 0.0
2014-Aug-25 16:33N 49°07' W 123°11'0 0.0
2014-Aug-25 15:33N 49°07' W 123°11'0 0.0
2014-Aug-25 14:33N 49°07' W 123°11'0 0.0
2014-Aug-25 13:34N 49°07' W 123°11'0 0.0
2014-Aug-25 12:34N 49°07' W 123°11'0 0.0
2014-Aug-25 11:34N 49°07' W 123°11'0 0.0
2014-Aug-25 10:33N 49°07' W 123°11'4 4.2
2014-Aug-25 09:34N 49°07' W 123°05'0 0.0
2014-Aug-25 08:33N 49°07' W 123°05'4 3.9
2014-Aug-25 07:34N 49°07' W 123°10'1 0.9
2014-Aug-25 06:33N 49°07' W 123°11'0 0.0
2014-Aug-25 05:34N 49°07' W 123°11'0 0.0
2014-Aug-25 04:33N 49°07' W 123°11'0 0.0
2014-Aug-25 03:34N 49°07' W 123°11'0 0.0
2014-Aug-25 02:34N 49°07' W 123°11'0 0.0
2014-Aug-25 01:33N 49°07' W 123°11'0 0.0
2014-Aug-25 00:33N 49°07' W 123°11'  
2014-Aug-20 15:30N 49°07' W 123°11'  
Track history (hours):
 
Tides and Currents Weather Stations Pressure Air Temp Water Temp Dewpoint Dewpoint Depression Visibility Wind Speed Wind Dir Waves Ship Positions

Hesquiat

Last reported at 2014-Aug-30 15:12 UTC. Time now 2014-Sep-01 18:49 UTC.
Position N 49°07' W 123°11'.

Length 31 m; draft 3.3 m.

Type: Fishing. MMSI: 316005022.

Date/timePositionNaut miles runAvg speedWind from/ knotsBaromVisibWave heightAir tempDewpointWater temp
2014-Aug-30 15:12N 49°07' W 123°11'0 0.0
2014-Aug-30 14:33N 49°07' W 123°11'0 0.0
2014-Aug-30 13:33N 49°07' W 123°11'0 0.0
2014-Aug-30 12:33N 49°07' W 123°11'0 0.0
2014-Aug-30 11:33N 49°07' W 123°11'0 0.0
2014-Aug-30 10:33N 49°07' W 123°11'0 0.0
2014-Aug-30 09:33N 49°07' W 123°11'0 0.0
2014-Aug-30 08:33N 49°07' W 123°11'0 0.0
2014-Aug-30 07:33N 49°07' W 123°11'0 0.0
2014-Aug-30 06:33N 49°07' W 123°11'0 0.0
2014-Aug-30 05:33N 49°07' W 123°11'0 0.0
2014-Aug-30 04:33N 49°07' W 123°11'0 0.0
2014-Aug-30 03:33N 49°07' W 123°11'0 0.0
2014-Aug-30 02:33N 49°07' W 123°11'0 0.0
2014-Aug-30 01:33N 49°07' W 123°11'0 0.0
2014-Aug-30 00:33N 49°07' W 123°11'0 0.0
2014-Aug-29 23:33N 49°07' W 123°11'0 0.0
2014-Aug-29 22:33N 49°07' W 123°11'0 0.0
2014-Aug-29 21:33N 49°07' W 123°11'0 0.0
2014-Aug-29 16:08N 49°07' W 123°11'0 0.0
2014-Aug-29 15:34N 49°07' W 123°11'0 0.0
2014-Aug-29 14:33N 49°07' W 123°11'0 0.0
2014-Aug-29 13:34N 49°07' W 123°11'0 0.0
2014-Aug-29 12:34N 49°07' W 123°11'0 0.0
2014-Aug-29 11:34N 49°07' W 123°11'0 0.0
2014-Aug-29 10:33N 49°07' W 123°11'0 0.0
2014-Aug-29 09:34N 49°07' W 123°11'0 0.0
2014-Aug-29 08:34N 49°07' W 123°11'0 0.0
2014-Aug-29 07:33N 49°07' W 123°11'0 0.0
2014-Aug-29 06:33N 49°07' W 123°11'0 0.0
2014-Aug-29 05:34N 49°07' W 123°11'0 0.0
2014-Aug-29 04:33N 49°07' W 123°11'0 0.0
2014-Aug-29 03:34N 49°07' W 123°11'0 0.0
2014-Aug-29 02:34N 49°07' W 123°11'0 0.0
2014-Aug-29 01:34N 49°07' W 123°11'0 0.0
2014-Aug-29 00:34N 49°07' W 123°11'0 0.0
2014-Aug-28 23:34N 49°07' W 123°11'0 0.0
2014-Aug-28 22:33N 49°07' W 123°11'0 0.0
2014-Aug-28 21:34N 49°07' W 123°11'0 0.0
2014-Aug-28 20:34N 49°07' W 123°11'0 0.0
2014-Aug-28 19:34N 49°07' W 123°11'3 2.6
2014-Aug-28 18:34N 49°07' W 123°15'7 6.6
2014-Aug-28 17:33N 49°12' W 123°22'10 9.5
2014-Aug-28 16:33N 49°19' W 123°12'4 4.3
2014-Aug-28 15:33N 49°17' W 123°06'0 0.0
2014-Aug-28 14:33N 49°17' W 123°06'0 0.0
2014-Aug-28 13:34N 49°17' W 123°06'0 0.0
2014-Aug-28 12:34N 49°17' W 123°06'0 0.0
2014-Aug-28 11:34N 49°17' W 123°06'6 6.3
2014-Aug-28 10:34N 49°18' W 123°15'1110.8
2014-Aug-28 09:34N 49°08' W 123°20'6 6.1
2014-Aug-28 08:33N 49°07' W 123°11'0 0.0
2014-Aug-28 07:33N 49°07' W 123°11'0 0.0
2014-Aug-28 06:33N 49°07' W 123°11'0 0.0
2014-Aug-28 05:33N 49°07' W 123°11'0 0.0
2014-Aug-28 04:33N 49°07' W 123°11'0 0.0
2014-Aug-28 03:33N 49°07' W 123°11'0 0.0
2014-Aug-28 02:33N 49°07' W 123°11'0 0.0
2014-Aug-28 01:33N 49°07' W 123°11'0 0.0
2014-Aug-28 00:33N 49°07' W 123°11'0 0.0
2014-Aug-27 23:33N 49°07' W 123°11'0 0.0
2014-Aug-27 22:33N 49°07' W 123°11'0 0.0
2014-Aug-27 21:33N 49°07' W 123°11'0 0.0
2014-Aug-27 20:33N 49°07' W 123°11'0 0.0
2014-Aug-27 19:33N 49°07' W 123°11'0 0.0
2014-Aug-27 18:33N 49°07' W 123°11'0 0.0
2014-Aug-27 17:33N 49°07' W 123°11'0 0.0
2014-Aug-27 16:33N 49°07' W 123°11'0 0.2
2014-Aug-27 15:33N 49°07' W 123°11'0 0.0
2014-Aug-27 14:33N 49°07' W 123°11'0 0.0
2014-Aug-27 13:33N 49°07' W 123°11'0 0.0
2014-Aug-27 12:33N 49°07' W 123°11'0 0.0
2014-Aug-27 11:33N 49°07' W 123°11'0 0.0
2014-Aug-27 10:33N 49°07' W 123°11'0 0.0
2014-Aug-27 09:33N 49°07' W 123°11'0 0.0
2014-Aug-27 08:33N 49°07' W 123°11'0 0.0
2014-Aug-27 07:33N 49°07' W 123°11'0 0.0
2014-Aug-27 06:33N 49°07' W 123°11'0 0.0
2014-Aug-27 05:33N 49°07' W 123°11'0 0.0
2014-Aug-27 04:33N 49°07' W 123°11'0 0.0
2014-Aug-27 03:33N 49°07' W 123°11'0 0.0
2014-Aug-27 02:33N 49°07' W 123°11'0 0.0
2014-Aug-27 01:33N 49°07' W 123°11'4 4.4
2014-Aug-27 00:33N 49°07' W 123°05'0 0.0
2014-Aug-26 23:33N 49°07' W 123°05'0 0.0
2014-Aug-26 22:33N 49°07' W 123°05'0 0.0
2014-Aug-26 21:33N 49°07' W 123°05'0 0.0
2014-Aug-26 20:33N 49°07' W 123°05'2 2.4
2014-Aug-26 19:33N 49°07' W 123°08'2 2.2
2014-Aug-26 18:33N 49°07' W 123°11'0 0.0
2014-Aug-26 17:33N 49°07' W 123°11'0 0.0
2014-Aug-26 16:33N 49°07' W 123°11'0 0.0
2014-Aug-26 15:33N 49°07' W 123°11'0 0.0
2014-Aug-26 14:33N 49°07' W 123°11'0 0.0
2014-Aug-26 13:33N 49°07' W 123°11'0 0.0
2014-Aug-26 12:33N 49°07' W 123°11'0 0.0
2014-Aug-26 11:33N 49°07' W 123°11'0 0.0
2014-Aug-26 10:33N 49°07' W 123°11'0 0.0
2014-Aug-26 09:33N 49°07' W 123°11'0 0.0
2014-Aug-26 08:33N 49°07' W 123°11'0 0.0
2014-Aug-26 07:33N 49°07' W 123°11'0 0.0
2014-Aug-26 06:33N 49°07' W 123°11'0 0.0
2014-Aug-26 05:33N 49°07' W 123°11'0 0.0
2014-Aug-26 04:33N 49°07' W 123°11'0 0.0
2014-Aug-26 03:33N 49°07' W 123°11'0 0.0
2014-Aug-26 02:33N 49°07' W 123°11'0 0.0
2014-Aug-26 01:34N 49°07' W 123°11'0 0.0
2014-Aug-26 00:33N 49°07' W 123°11'0 0.0
2014-Aug-25 23:33N 49°07' W 123°11'0 0.0
2014-Aug-25 22:34N 49°07' W 123°11'0 0.0
2014-Aug-25 21:34N 49°07' W 123°11'0 0.0
2014-Aug-25 20:34N 49°07' W 123°11'0 0.0
2014-Aug-25 19:34N 49°07' W 123°11'0 0.0
2014-Aug-25 18:33N 49°07' W 123°11'0 0.0
2014-Aug-25 17:34N 49°07' W 123°11'0 0.0
2014-Aug-25 16:33N 49°07' W 123°11'0 0.0
2014-Aug-25 15:33N 49°07' W 123°11'0 0.0
2014-Aug-25 14:33N 49°07' W 123°11'0 0.0
2014-Aug-25 13:34N 49°07' W 123°11'0 0.0
2014-Aug-25 12:34N 49°07' W 123°11'0 0.0
2014-Aug-25 11:34N 49°07' W 123°11'0 0.0
2014-Aug-25 10:33N 49°07' W 123°11'4 4.2
2014-Aug-25 09:34N 49°07' W 123°05'0 0.0
2014-Aug-25 08:33N 49°07' W 123°05'4 3.9
2014-Aug-25 07:34N 49°07' W 123°10'1 0.9
2014-Aug-25 06:33N 49°07' W 123°11'0 0.0
2014-Aug-25 05:34N 49°07' W 123°11'0 0.0
2014-Aug-25 04:33N 49°07' W 123°11'0 0.0
2014-Aug-25 03:34N 49°07' W 123°11'0 0.0
2014-Aug-25 02:34N 49°07' W 123°11'0 0.0
2014-Aug-25 01:33N 49°07' W 123°11'0 0.0
2014-Aug-25 00:33N 49°07' W 123°11'  
2014-Aug-20 15:30N 49°07' W 123°11'  

Dump ship's entire track history